createdAt,value
2023-06-04T00:01:16.342Z,25.00
2023-06-04T00:03:45.103Z,24.91
2023-06-04T00:06:13.049Z,25.13
2023-06-04T00:08:40.885Z,25.13
2023-06-04T00:11:09.224Z,24.83
2023-06-04T00:13:37.178Z,25.01
2023-06-04T00:16:06.935Z,24.86
2023-06-04T00:18:34.985Z,25.00
2023-06-04T00:21:02.896Z,24.70
2023-06-04T00:23:32.166Z,25.10
2023-06-04T00:26:00.052Z,25.10
2023-06-04T00:28:27.995Z,25.01
2023-06-04T00:30:55.913Z,25.13
2023-06-04T00:33:23.712Z,25.06
2023-06-04T00:35:53.987Z,25.04
2023-06-04T00:38:22.650Z,25.15
2023-06-04T00:40:50.826Z,24.34
2023-06-04T00:43:21.706Z,25.16
2023-06-04T00:45:49.558Z,25.09
2023-06-04T00:48:20.131Z,25.10
2023-06-04T00:50:49.943Z,25.13
2023-06-04T00:53:18.467Z,25.12
2023-06-04T00:55:46.554Z,25.03
2023-06-04T00:58:16.631Z,25.05
2023-06-04T01:00:46.463Z,25.16
2023-06-04T01:03:19.108Z,24.75
2023-06-04T01:06:22.540Z,25.16
2023-06-04T01:08:59.713Z,25.15
2023-06-04T01:11:36.122Z,25.09
2023-06-04T01:14:06.461Z,24.77
2023-06-04T01:16:48.530Z,24.97
2023-06-04T01:19:44.254Z,25.16
2023-06-04T01:22:42.224Z,25.12
2023-06-04T01:25:24.979Z,25.12
2023-06-04T01:27:56.990Z,25.13
2023-06-04T01:30:27.555Z,25.09
2023-06-04T01:32:56.427Z,24.80
2023-06-04T01:35:28.251Z,24.95
2023-06-04T01:37:57.063Z,25.14
2023-06-04T01:40:26.879Z,25.06
2023-06-04T01:42:55.406Z,24.94
2023-06-04T01:45:24.319Z,25.07
2023-06-04T01:47:52.895Z,24.97
2023-06-04T01:50:21.008Z,25.03
2023-06-04T01:52:48.826Z,25.13
2023-06-04T01:55:18.224Z,25.13
2023-06-04T01:57:47.289Z,25.08
2023-06-04T02:00:15.936Z,25.01
2023-06-04T02:02:49.482Z,24.95
2023-06-04T02:05:17.910Z,24.79
2023-06-04T02:07:49.121Z,24.72
2023-06-04T02:10:19.245Z,24.79
2023-06-04T02:13:15.238Z,25.07
2023-06-04T02:15:43.465Z,24.87
2023-06-04T02:18:22.268Z,24.89
2023-06-04T02:20:51.456Z,24.74
2023-06-04T02:23:21.194Z,24.80
2023-06-04T02:25:50.660Z,24.92
2023-06-04T02:28:18.993Z,24.89
2023-06-04T02:30:47.653Z,25.04
2023-06-04T02:33:15.902Z,24.77
2023-06-04T02:35:43.900Z,25.05
2023-06-04T02:38:12.010Z,24.97
2023-06-04T02:40:40.483Z,24.93
2023-06-04T02:43:08.349Z,24.83
2023-06-04T02:45:37.583Z,24.99
2023-06-04T02:48:05.749Z,25.07
2023-06-04T02:50:34.500Z,24.86
2023-06-04T02:53:02.346Z,25.08
2023-06-04T02:55:30.162Z,24.97
2023-06-04T02:57:59.162Z,24.96
2023-06-04T03:00:27.556Z,24.99
2023-06-04T03:03:02.868Z,24.92
2023-06-04T03:05:34.432Z,24.70
2023-06-04T03:08:05.017Z,24.74
2023-06-04T03:10:33.030Z,25.05
2023-06-04T03:13:01.001Z,24.95
2023-06-04T03:15:28.698Z,24.69
2023-06-04T03:17:56.673Z,24.98
2023-06-04T03:20:25.646Z,25.03
2023-06-04T03:22:54.002Z,24.88
2023-06-04T03:25:21.934Z,24.94
2023-06-04T03:27:49.798Z,24.67
2023-06-04T03:30:18.287Z,24.89
2023-06-04T03:33:15.049Z,24.76
2023-06-04T03:35:42.802Z,25.02
2023-06-04T03:38:10.643Z,25.03
2023-06-04T03:40:39.580Z,24.94
2023-06-04T03:43:08.947Z,24.93
2023-06-04T03:45:37.115Z,24.75
2023-06-04T03:48:05.301Z,24.90
2023-06-04T03:50:35.155Z,24.74
2023-06-04T03:53:03.009Z,24.82
2023-06-04T03:55:35.612Z,24.69
2023-06-04T03:58:04.790Z,25.03
2023-06-04T04:00:32.593Z,24.84
2023-06-04T04:03:06.031Z,25.01
2023-06-04T04:05:33.952Z,24.96
2023-06-04T04:08:01.976Z,24.70
2023-06-04T04:10:33.138Z,24.82
2023-06-04T04:13:01.178Z,24.99
2023-06-04T04:15:32.767Z,24.21
2023-06-04T04:18:02.688Z,24.91
2023-06-04T04:20:31.185Z,24.97
2023-06-04T04:23:04.438Z,24.98
2023-06-04T04:25:33.821Z,24.99
2023-06-04T04:28:07.922Z,24.89
2023-06-04T04:30:37.214Z,24.98
2023-06-04T04:33:07.534Z,24.98
2023-06-04T04:35:41.253Z,24.93
2023-06-04T04:38:11.145Z,24.98
2023-06-04T04:40:48.919Z,24.98
2023-06-04T04:43:17.949Z,24.98
2023-06-04T04:45:46.127Z,24.89
2023-06-04T04:48:14.227Z,24.97
2023-06-04T04:50:42.163Z,24.94
2023-06-04T04:53:11.247Z,24.79
2023-06-04T04:55:43.144Z,24.96
2023-06-04T04:58:11.111Z,24.58
2023-06-04T05:00:39.197Z,24.84
2023-06-04T05:03:07.378Z,24.78
2023-06-04T05:05:36.804Z,24.64
2023-06-04T05:08:06.428Z,24.72
2023-06-04T05:10:39.521Z,24.77
2023-06-04T05:13:08.883Z,24.81
2023-06-04T05:15:45.304Z,24.58
2023-06-04T05:18:17.689Z,24.81
2023-06-04T05:20:46.173Z,24.89
2023-06-04T05:23:15.110Z,24.71
2023-06-04T05:25:45.244Z,24.76
2023-06-04T05:28:14.187Z,24.95
2023-06-04T05:30:42.692Z,24.92
2023-06-04T05:33:19.390Z,24.96
2023-06-04T05:35:58.893Z,24.96
2023-06-04T05:38:32.021Z,24.75
2023-06-04T05:41:04.797Z,24.83
2023-06-04T05:43:38.927Z,24.79
2023-06-04T05:46:09.111Z,24.95
2023-06-04T05:48:37.063Z,24.94
2023-06-04T05:51:05.449Z,24.70
2023-06-04T05:53:34.339Z,24.91
2023-06-04T05:56:02.254Z,24.87
2023-06-04T05:58:31.386Z,24.64
2023-06-04T06:00:59.453Z,24.94
2023-06-04T06:03:29.017Z,24.93
2023-06-04T06:06:00.201Z,24.57
2023-06-04T06:08:28.158Z,24.92
2023-06-04T06:10:57.108Z,24.82
2023-06-04T06:13:25.168Z,24.71
2023-06-04T06:15:54.122Z,24.59
2023-06-04T06:18:22.484Z,24.93
2023-06-04T06:20:50.661Z,24.86
2023-06-04T06:23:20.481Z,24.89
2023-06-04T06:25:50.285Z,24.68
2023-06-04T06:28:23.176Z,24.87
2023-06-04T06:30:52.209Z,24.94
2023-06-04T06:33:22.822Z,24.98
2023-06-04T06:35:50.725Z,24.99
2023-06-04T06:38:18.861Z,24.89
2023-06-04T06:40:47.316Z,24.77
2023-06-04T06:43:15.628Z,24.84
2023-06-04T06:45:43.401Z,25.02
2023-06-04T06:48:11.296Z,24.51
2023-06-04T06:50:39.441Z,24.98
2023-06-04T06:53:07.355Z,25.04
2023-06-04T06:55:35.265Z,25.04
2023-06-04T06:58:03.142Z,24.84
2023-06-04T07:00:31.006Z,24.95
2023-06-04T07:02:58.853Z,24.96
2023-06-04T07:05:26.818Z,24.93
2023-06-04T07:07:55.646Z,24.69
2023-06-04T07:10:23.457Z,24.98
2023-06-04T07:12:51.267Z,24.62
2023-06-04T07:15:19.925Z,24.89
2023-06-04T07:17:48.155Z,24.84
2023-06-04T07:20:16.074Z,25.17
2023-06-04T07:22:43.843Z,24.90
2023-06-04T07:25:11.825Z,24.93
2023-06-04T07:27:40.074Z,25.15
2023-06-04T07:30:10.998Z,25.16
2023-06-04T07:32:38.811Z,25.22
2023-06-04T07:35:07.475Z,25.10
2023-06-04T07:37:35.140Z,24.91
2023-06-04T07:40:03.077Z,25.07
2023-06-04T07:42:30.992Z,25.02
2023-06-04T07:44:58.906Z,25.28
2023-06-04T07:47:26.860Z,25.28
2023-06-04T07:50:02.683Z,25.29
2023-06-04T07:52:31.812Z,25.29
2023-06-04T07:55:01.862Z,25.29
2023-06-04T07:57:30.253Z,25.29
2023-06-04T07:59:59.208Z,25.20
2023-06-04T08:02:27.523Z,25.29
2023-06-04T08:04:55.523Z,25.28
2023-06-04T08:07:23.655Z,25.15
2023-06-04T08:09:51.729Z,25.04
2023-06-04T08:12:19.459Z,25.23
2023-06-04T08:14:47.266Z,25.30
2023-06-04T08:17:15.998Z,25.28
2023-06-04T08:19:44.670Z,25.21
2023-06-04T08:22:18.595Z,25.38
2023-06-04T08:24:53.930Z,24.96
2023-06-04T08:27:42.850Z,25.19
2023-06-04T08:30:22.997Z,25.33
2023-06-04T08:33:12.482Z,25.26
2023-06-04T08:35:47.845Z,25.32
2023-06-04T08:38:16.042Z,25.31
2023-06-04T08:40:44.811Z,25.32
2023-06-04T08:43:13.198Z,25.32
2023-06-04T08:45:42.254Z,24.81
2023-06-04T08:48:14.599Z,25.28
2023-06-04T08:50:46.591Z,24.79
2023-06-04T08:53:17.246Z,25.05
2023-06-04T08:55:45.207Z,25.22
2023-06-04T08:58:14.088Z,25.11
2023-06-04T09:00:41.997Z,25.20
2023-06-04T09:03:11.700Z,25.22
2023-06-04T09:05:41.156Z,25.15
2023-06-04T09:08:12.511Z,25.27
2023-06-04T09:10:43.174Z,25.25
2023-06-04T09:13:12.337Z,25.28
2023-06-04T09:15:40.089Z,25.33
2023-06-04T09:18:07.887Z,25.28
2023-06-04T09:20:35.823Z,25.15
2023-06-04T09:23:15.543Z,25.26
2023-06-04T09:25:47.528Z,25.21
2023-06-04T09:28:16.511Z,25.34
2023-06-04T09:30:53.529Z,25.42
2023-06-04T09:33:22.203Z,25.15
2023-06-04T09:35:57.421Z,25.34
2023-06-04T09:38:35.109Z,25.05
2023-06-04T09:41:07.776Z,25.41
2023-06-04T09:43:36.349Z,25.47
2023-06-04T09:46:18.496Z,25.39
2023-06-04T09:48:46.871Z,25.52
2023-06-04T09:51:16.648Z,25.52
2023-06-04T09:53:54.931Z,25.49
2023-06-04T09:56:23.393Z,25.62
2023-06-04T09:58:55.122Z,25.55
2023-06-04T10:01:25.772Z,25.54
2023-06-04T10:03:55.313Z,25.51
2023-06-04T10:06:24.185Z,25.33
2023-06-04T10:08:53.244Z,25.42
2023-06-04T10:11:32.354Z,25.43
2023-06-04T10:14:20.204Z,25.49
2023-06-04T10:16:49.212Z,25.42
2023-06-04T10:19:19.011Z,25.54
2023-06-04T10:21:47.290Z,25.12
2023-06-04T10:24:15.868Z,25.29
2023-06-04T10:26:44.569Z,25.53
2023-06-04T10:29:15.879Z,25.58
2023-06-04T10:31:44.579Z,25.64
2023-06-04T10:34:13.365Z,25.64
2023-06-04T10:36:45.740Z,25.91
2023-06-04T10:39:14.495Z,25.79
2023-06-04T10:41:42.656Z,26.01
2023-06-04T10:44:10.591Z,25.94
2023-06-04T10:46:43.261Z,26.00
2023-06-04T10:49:16.088Z,26.01
2023-06-04T10:51:45.268Z,25.79
2023-06-04T10:54:24.930Z,26.18
2023-06-04T10:56:57.123Z,26.03
2023-06-04T10:59:25.738Z,26.09
2023-06-04T11:02:05.895Z,26.18
2023-06-04T11:04:34.031Z,26.30
2023-06-04T11:07:11.803Z,26.31
2023-06-04T11:09:50.822Z,26.29
2023-06-04T11:12:18.748Z,26.06
2023-06-04T11:14:59.696Z,26.18
2023-06-04T11:17:28.094Z,26.29
2023-06-04T11:19:56.872Z,26.10
2023-06-04T11:22:25.456Z,26.10
2023-06-04T11:25:01.971Z,26.06
2023-06-04T11:27:36.686Z,26.05
2023-06-04T11:30:09.100Z,26.26
2023-06-04T11:32:36.787Z,26.21
2023-06-04T11:35:09.100Z,26.09
2023-06-04T11:37:37.910Z,26.26
2023-06-04T11:40:28.984Z,26.08
2023-06-04T11:42:56.779Z,26.03
2023-06-04T11:45:24.852Z,26.23
2023-06-04T11:47:57.463Z,26.12
2023-06-04T11:50:29.837Z,25.99
2023-06-04T11:52:57.974Z,26.23
2023-06-04T11:55:27.003Z,26.14
2023-06-04T11:57:55.663Z,26.12
2023-06-04T12:00:23.747Z,26.22
2023-06-04T12:02:54.658Z,26.12
2023-06-04T12:05:32.335Z,26.19
2023-06-04T12:08:12.445Z,26.11
2023-06-04T12:10:41.617Z,26.15
2023-06-04T12:13:10.800Z,26.15
2023-06-04T12:15:38.712Z,26.05
2023-06-04T12:18:07.277Z,26.22
2023-06-04T12:20:40.127Z,26.16
2023-06-04T12:23:22.140Z,26.23
2023-06-04T12:25:53.512Z,26.22
2023-06-04T12:28:21.422Z,26.11
2023-06-04T12:30:49.511Z,26.17
2023-06-04T12:33:17.363Z,25.87
2023-06-04T12:35:46.646Z,25.49
2023-06-04T12:38:14.401Z,25.07
2023-06-04T12:40:42.090Z,26.17
2023-06-04T12:43:10.590Z,26.12
2023-06-04T12:45:38.434Z,26.18
2023-06-04T12:48:06.515Z,26.10
2023-06-04T12:50:34.597Z,25.87
2023-06-04T12:53:02.503Z,26.18
2023-06-04T12:55:30.511Z,26.02
2023-06-04T12:57:58.388Z,26.09
2023-06-04T13:00:26.691Z,26.07
2023-06-04T13:02:54.633Z,25.98
2023-06-04T13:05:22.637Z,26.20
2023-06-04T13:07:50.380Z,26.08
2023-06-04T13:10:18.604Z,25.96
2023-06-04T13:12:46.544Z,26.00
2023-06-04T13:15:14.354Z,25.68
2023-06-04T13:17:42.354Z,25.83
2023-06-04T13:20:11.480Z,25.93
2023-06-04T13:22:39.246Z,25.88
2023-06-04T13:25:08.037Z,25.55
2023-06-04T13:27:35.729Z,25.84
2023-06-04T13:30:06.580Z,25.76
2023-06-04T13:32:34.466Z,25.84
2023-06-04T13:35:02.935Z,25.87
2023-06-04T13:37:30.857Z,25.96
2023-06-04T13:39:58.706Z,25.93
2023-06-04T13:42:26.549Z,25.90
2023-06-04T13:44:54.489Z,25.87
2023-06-04T13:47:23.295Z,25.80
2023-06-04T13:49:53.285Z,25.94
2023-06-04T13:52:21.441Z,25.83
2023-06-04T13:54:49.172Z,25.75
2023-06-04T13:57:18.428Z,25.88
2023-06-04T13:59:48.969Z,25.88
2023-06-04T14:02:20.684Z,25.76
2023-06-04T14:04:49.009Z,24.88
2023-06-04T14:07:17.093Z,25.83
2023-06-04T14:09:44.950Z,25.57
2023-06-04T14:12:20.386Z,25.84
2023-06-04T14:14:48.216Z,25.77
2023-06-04T14:17:16.787Z,25.88
2023-06-04T14:19:49.275Z,25.64
2023-06-04T14:22:17.169Z,25.72
2023-06-04T14:24:45.269Z,25.74
2023-06-04T14:27:13.074Z,25.71
2023-06-04T14:29:42.012Z,25.91
2023-06-04T14:32:09.822Z,25.59
2023-06-04T14:34:38.520Z,25.63
2023-06-04T14:37:06.403Z,25.66
2023-06-04T14:39:34.449Z,25.77
2023-06-04T14:42:02.259Z,25.49
2023-06-04T14:44:30.073Z,25.85
2023-06-04T14:46:58.028Z,25.55
2023-06-04T14:49:25.932Z,25.82
2023-06-04T14:51:53.772Z,25.78
2023-06-04T14:54:21.669Z,25.87
2023-06-04T14:56:49.573Z,25.76
2023-06-04T14:59:17.386Z,25.92
2023-06-04T15:01:45.440Z,25.67
2023-06-04T15:04:13.782Z,26.08
2023-06-04T15:06:41.706Z,26.02
2023-06-04T15:09:09.720Z,26.02
2023-06-04T15:11:37.612Z,25.88
2023-06-04T15:14:05.328Z,26.17
2023-06-04T15:16:33.181Z,26.06
2023-06-04T15:19:01.099Z,26.16
2023-06-04T15:21:29.458Z,26.32
2023-06-04T15:23:57.587Z,26.27
2023-06-04T15:26:26.003Z,26.14
2023-06-04T15:28:55.156Z,26.17
2023-06-04T15:31:23.161Z,26.29
2023-06-04T15:33:51.354Z,26.18
2023-06-04T15:36:19.253Z,26.24
2023-06-04T15:38:50.932Z,26.27
2023-06-04T15:41:20.195Z,25.85
2023-06-04T15:43:48.180Z,26.21
2023-06-04T15:46:16.269Z,26.01
2023-06-04T15:48:44.242Z,26.15
2023-06-04T15:51:12.195Z,26.15
2023-06-04T15:53:41.439Z,26.10
2023-06-04T15:56:09.983Z,26.03
2023-06-04T15:58:37.972Z,26.06
2023-06-04T16:01:06.035Z,26.08
2023-06-04T16:03:34.283Z,26.11
2023-06-04T16:06:02.176Z,26.03
2023-06-04T16:08:30.000Z,25.94
2023-06-04T16:10:58.495Z,25.84
2023-06-04T16:13:27.639Z,26.05
2023-06-04T16:15:56.731Z,26.10
2023-06-04T16:18:24.658Z,26.03
2023-06-04T16:20:52.489Z,26.02
2023-06-04T16:23:20.367Z,26.01
2023-06-04T16:25:48.945Z,25.89
2023-06-04T16:28:16.971Z,25.93
2023-06-04T16:30:45.507Z,25.74
2023-06-04T16:33:13.461Z,25.84
2023-06-04T16:35:41.293Z,25.79
2023-06-04T16:38:10.330Z,25.61
2023-06-04T16:40:38.380Z,25.61
2023-06-04T16:43:07.710Z,25.82
2023-06-04T16:45:36.116Z,25.76
2023-06-04T16:48:04.306Z,25.83
2023-06-04T16:50:32.462Z,25.80
2023-06-04T16:53:01.124Z,25.47
2023-06-04T16:55:34.300Z,25.38
2023-06-04T16:58:14.607Z,25.53
2023-06-04T17:00:42.539Z,25.62
2023-06-04T17:03:11.908Z,25.51
2023-06-04T17:05:39.917Z,25.55
2023-06-04T17:08:07.870Z,25.67
2023-06-04T17:10:35.852Z,25.50
2023-06-04T17:13:03.847Z,25.63
2023-06-04T17:15:31.849Z,25.49
2023-06-04T17:18:02.711Z,25.65
2023-06-04T17:20:31.953Z,25.68
2023-06-04T17:23:03.776Z,25.68
2023-06-04T17:25:33.302Z,25.60
2023-06-04T17:28:01.562Z,25.27
2023-06-04T17:30:29.365Z,25.60
2023-06-04T17:32:57.364Z,25.67
2023-06-04T17:35:25.671Z,25.57
2023-06-04T17:37:53.828Z,25.51
2023-06-04T17:40:21.717Z,25.81
2023-06-04T17:42:49.517Z,25.48
2023-06-04T17:45:17.431Z,25.42
2023-06-04T17:47:45.208Z,25.81
2023-06-04T17:50:12.984Z,25.61
2023-06-04T17:52:40.776Z,25.69
2023-06-04T17:55:09.311Z,25.21
2023-06-04T17:57:37.412Z,25.73
2023-06-04T18:00:06.541Z,25.55
2023-06-04T18:02:40.929Z,25.60
2023-06-04T18:05:10.386Z,25.77
2023-06-04T18:07:38.502Z,25.53
2023-06-04T18:10:11.784Z,25.63
2023-06-04T18:12:39.639Z,25.67
2023-06-04T18:15:08.217Z,25.72
2023-06-04T18:17:36.229Z,25.71
2023-06-04T18:20:04.398Z,25.54
2023-06-04T18:22:33.645Z,25.69
2023-06-04T18:25:01.542Z,25.38
2023-06-04T18:27:29.792Z,25.59
2023-06-04T18:29:57.717Z,25.40
2023-06-04T18:32:25.691Z,25.67
2023-06-04T18:34:53.495Z,25.55
2023-06-04T18:37:21.346Z,25.48
2023-06-04T18:39:49.165Z,25.62
2023-06-04T18:42:29.632Z,25.57
2023-06-04T18:45:01.077Z,25.58
2023-06-04T18:47:30.607Z,25.27
2023-06-04T18:49:59.282Z,25.62
2023-06-04T18:52:27.691Z,25.57
2023-06-04T18:54:55.614Z,25.45
2023-06-04T18:57:23.651Z,25.51
2023-06-04T18:59:51.608Z,25.59
2023-06-04T19:02:19.592Z,25.56
2023-06-04T19:04:47.962Z,25.46
2023-06-04T19:07:17.355Z,25.28
2023-06-04T19:09:45.106Z,25.45
2023-06-04T19:12:13.359Z,25.56
2023-06-04T19:14:41.276Z,25.46
2023-06-04T19:17:09.426Z,25.61
2023-06-04T19:19:37.266Z,25.44
2023-06-04T19:22:05.185Z,25.67
2023-06-04T19:24:33.555Z,25.47
2023-06-04T19:27:01.376Z,25.67
2023-06-04T19:29:29.437Z,25.44
2023-06-04T19:31:57.540Z,25.66
2023-06-04T19:34:27.332Z,25.67
2023-06-04T19:36:57.599Z,25.67
2023-06-04T19:39:25.815Z,25.67
2023-06-04T19:41:53.674Z,25.45
2023-06-04T19:44:21.818Z,25.48
2023-06-04T19:46:49.836Z,25.65
2023-06-04T19:49:20.561Z,25.46
2023-06-04T19:51:48.544Z,25.58
2023-06-04T19:54:16.673Z,25.55
2023-06-04T19:56:44.949Z,25.61
2023-06-04T19:59:12.778Z,25.50
2023-06-04T20:01:40.687Z,25.24
2023-06-04T20:04:09.114Z,25.26
2023-06-04T20:06:37.712Z,25.41
2023-06-04T20:09:05.748Z,25.39
2023-06-04T20:11:33.608Z,25.25
2023-06-04T20:14:01.620Z,25.60
2023-06-04T20:16:31.155Z,25.41
2023-06-04T20:18:59.116Z,25.39
2023-06-04T20:21:33.326Z,25.37
2023-06-04T20:24:03.281Z,25.61
2023-06-04T20:26:32.228Z,25.37
2023-06-04T20:28:59.993Z,25.65
2023-06-04T20:31:31.056Z,24.25
2023-06-04T20:33:59.630Z,24.21
2023-06-04T20:36:28.926Z,24.95
2023-06-04T20:38:57.610Z,24.29
2023-06-04T20:41:25.721Z,25.26
2023-06-04T20:43:55.808Z,25.52
2023-06-04T20:46:23.860Z,25.42
2023-06-04T20:48:54.194Z,25.47
2023-06-04T20:51:22.121Z,25.16
2023-06-04T20:53:50.762Z,25.35
2023-06-04T20:56:18.701Z,25.52
2023-06-04T20:58:46.807Z,25.44
2023-06-04T21:01:15.018Z,25.30
2023-06-04T21:03:42.967Z,25.56
2023-06-04T21:06:10.986Z,25.36
2023-06-04T21:08:39.377Z,25.44
2023-06-04T21:11:07.383Z,25.59
2023-06-04T21:13:35.526Z,25.51
2023-06-04T21:16:03.880Z,25.41
2023-06-04T21:18:31.740Z,25.59
2023-06-04T21:20:59.483Z,25.25
2023-06-04T21:23:27.480Z,25.43
2023-06-04T21:25:55.592Z,25.54
2023-06-04T21:28:23.748Z,25.17
2023-06-04T21:30:51.496Z,25.55
2023-06-04T21:33:19.286Z,25.42
2023-06-04T21:35:47.371Z,25.57
2023-06-04T21:38:18.226Z,25.58
2023-06-04T21:40:47.943Z,25.49
2023-06-04T21:43:16.925Z,25.54
2023-06-04T21:45:45.354Z,25.58
2023-06-04T21:48:13.428Z,25.58
2023-06-04T21:50:41.511Z,24.99
2023-06-04T21:53:09.434Z,25.19
2023-06-04T21:55:37.601Z,25.21
2023-06-04T21:58:05.560Z,25.10
2023-06-04T22:00:37.285Z,25.47
2023-06-04T22:03:05.906Z,25.25
2023-06-04T22:05:34.018Z,25.35
2023-06-04T22:08:02.256Z,25.50
2023-06-04T22:10:30.132Z,25.56
2023-06-04T22:12:59.575Z,25.47
2023-06-04T22:15:27.446Z,25.24
2023-06-04T22:17:56.395Z,25.38
2023-06-04T22:20:26.689Z,25.51
2023-06-04T22:22:54.666Z,25.54
2023-06-04T22:25:22.667Z,25.51
2023-06-04T22:27:50.677Z,25.45
2023-06-04T22:30:18.641Z,25.49
2023-06-04T22:32:46.448Z,25.27
2023-06-04T22:35:14.688Z,25.47
2023-06-04T22:37:42.952Z,25.53
2023-06-04T22:40:11.204Z,25.23
2023-06-04T22:42:40.210Z,25.39
2023-06-04T22:45:10.270Z,25.37
2023-06-04T22:47:38.531Z,25.43
2023-06-04T22:50:07.165Z,25.55
2023-06-04T22:52:35.861Z,25.54
2023-06-04T22:55:09.432Z,25.38
2023-06-04T22:57:38.863Z,25.45
2023-06-04T23:00:07.961Z,25.54
2023-06-04T23:02:36.822Z,25.55
2023-06-04T23:05:10.141Z,25.01
2023-06-04T23:07:38.767Z,24.18
2023-06-04T23:10:15.996Z,24.96
2023-06-04T23:12:44.606Z,24.05
2023-06-04T23:15:24.105Z,25.06
2023-06-04T23:17:53.638Z,24.76
2023-06-04T23:20:25.124Z,25.53
2023-06-04T23:23:05.397Z,25.07
2023-06-04T23:25:37.498Z,24.64
2023-06-04T23:28:11.453Z,25.48
2023-06-04T23:30:44.290Z,24.22
2023-06-04T23:33:16.816Z,24.59
2023-06-04T23:35:46.193Z,24.12
2023-06-04T23:38:14.757Z,24.68
2023-06-04T23:40:43.260Z,24.62
2023-06-04T23:43:14.478Z,25.08
2023-06-04T23:45:42.996Z,25.01
2023-06-04T23:48:11.618Z,24.56
2023-06-04T23:50:43.256Z,24.03
2023-06-04T23:53:13.239Z,24.41
2023-06-04T23:55:41.812Z,24.99
2023-06-04T23:58:10.352Z,24.17
